Time;durP1;ratioP1;P1;durP2;ratioP2;P2;SDS_P1;SDS_P2;PMS_P1;PMS_P2;Temp;Humidity;BMP_temperature;BMP_pressure;BME280_temperature;BME280_humidity;BME280_pressure;Samples;Min_cycle;Max_cycle;Signal;HPM_P1;HPM_P2
2023/05/07 10:57:37;;;;;;;4.37;2.30;;;10.40;99.90;;;;;;5069637;28;20549;-81
2023/05/07 11:00:23;;;;;;;3.13;1.80;;;10.40;99.90;;;;;;5069604;28;20646;-80
2023/05/07 11:03:06;;;;;;;2.27;1.73;;;10.40;99.90;;;;;;5067743;28;20209;-82
2023/05/07 11:05:45;;;;;;;2.80;2.00;;;10.50;99.90;;;;;;5067507;28;20226;-84
2023/05/07 11:08:15;;;;;;;2.57;1.93;;;10.70;99.90;;;;;;5067980;28;20198;-81
2023/05/07 11:10:58;;;;;;;3.70;1.97;;;10.80;99.90;;;;;;5070947;28;20179;-79
2023/05/07 11:13:44;;;;;;;8.77;2.30;;;11.00;99.90;;;;;;5069694;28;20379;-80
2023/05/07 11:16:22;;;;;;;4.30;1.90;;;10.90;99.90;;;;;;5053737;28;20253;-81
2023/05/07 11:18:54;;;;;;;3.37;1.80;;;11.00;99.90;;;;;;5069609;28;20201;-81
2023/05/07 11:21:36;;;;;;;2.90;1.73;;;11.10;99.90;;;;;;5102643;28;20596;-89
2023/05/07 11:24:06;;;;;;;5.03;1.90;;;11.00;99.90;;;;;;5087892;28;20195;-84
2023/05/07 11:26:50;;;;;;;3.67;2.13;;;11.10;99.90;;;;;;5070341;28;20230;-83
2023/05/07 11:29:21;;;;;;;3.33;1.93;;;11.10;99.90;;;;;;5067888;28;20206;-84
2023/05/07 11:31:54;;;;;;;2.57;1.73;;;11.10;99.90;;;;;;5100844;28;20224;-81
2023/05/07 11:34:23;;;;;;;3.00;1.90;;;11.30;99.90;;;;;;5102204;28;20548;-73
2023/05/07 11:36:50;;;;;;;3.10;1.90;;;11.50;99.90;;;;;;5100881;28;20705;-82
2023/05/07 11:39:32;;;;;;;2.97;1.80;;;11.50;99.90;;;;;;5067731;28;20262;-82
2023/05/07 11:42:03;;;;;;;2.90;2.13;;;11.50;99.90;;;;;;5050832;28;20198;-81
2023/05/07 11:44:53;;;;;;;3.60;2.00;;;11.90;99.90;;;;;;5050151;28;20198;-81
2023/05/07 11:47:20;;;;;;;4.13;1.80;;;12.80;99.90;;;;;;5034954;28;20214;-82
2023/05/07 11:49:49;;;;;;;2.47;1.60;;;13.20;99.90;;;;;;5066732;28;20648;-81
2023/05/07 11:52:17;;;;;;;2.40;1.70;;;13.60;99.90;;;;;;5066393;28;20230;-82
2023/05/07 11:54:55;;;;;;;2.20;1.63;;;13.70;99.90;;;;;;5066409;28;20662;-82
2023/05/07 11:57:26;;;;;;;3.87;2.07;;;13.40;99.90;;;;;;5066170;28;20726;-82
2023/05/07 12:00:01;;;;;;;2.60;1.70;;;13.40;99.90;;;;;;5066450;28;20198;-82
2023/05/07 12:02:28;;;;;;;2.60;1.63;;;13.40;99.90;;;;;;5066453;28;20635;-81
2023/05/07 12:04:55;;;;;;;2.00;1.60;;;13.30;99.90;;;;;;5065819;28;20372;-84
2023/05/07 12:07:24;;;;;;;2.73;1.40;;;13.50;99.90;;;;;;5060205;28;20194;-78
2023/05/07 12:09:52;;;;;;;2.10;1.60;;;14.20;99.90;;;;;;5052933;28;20195;-79
2023/05/07 12:12:19;;;;;;;2.50;1.73;;;14.40;99.90;;;;;;5054565;28;20615;-79
2023/05/07 12:14:46;;;;;;;3.27;1.83;;;14.40;99.90;;;;;;5054089;28;20191;-80
2023/05/07 12:17:15;;;;;;;3.37;1.80;;;14.10;99.90;;;;;;5052332;28;20250;-81
2023/05/07 12:19:44;;;;;;;2.53;1.60;;;13.70;99.90;;;;;;5053040;28;20191;-81
2023/05/07 12:22:12;;;;;;;2.63;1.70;;;13.40;99.90;;;;;;5036741;28;20199;-79
2023/05/07 12:24:56;;;;;;;4.03;1.60;;;12.90;99.90;;;;;;5052749;28;20209;-80
2023/05/07 12:27:23;;;;;;;2.13;1.60;;;12.50;99.90;;;;;;5053184;28;20191;-81
2023/05/07 12:29:51;;;;;;;2.23;1.53;;;12.40;99.90;;;;;;5036393;28;20538;-80
2023/05/07 12:32:20;;;;;;;5.70;1.70;;;12.40;99.90;;;;;;5052625;28;20205;-80
2023/05/07 12:34:50;;;;;;;3.13;1.60;;;12.50;99.90;;;;;;5053621;28;20198;-79
2023/05/07 12:37:25;;;;;;;1.83;1.60;;;12.80;99.90;;;;;;5052625;28;20230;-80
2023/05/07 12:40:11;;;;;;;3.43;1.63;;;13.20;99.90;;;;;;5053184;28;20194;-81
2023/05/07 12:42:39;;;;;;;3.23;1.60;;;13.50;99.90;;;;;;5052560;28;20207;-81
2023/05/07 12:45:15;;;;;;;2.43;1.53;;;13.60;99.90;;;;;;5055721;28;20776;-82
2023/05/07 12:47:47;;;;;;;2.97;1.80;;;13.90;99.90;;;;;;5053442;28;20199;-80
2023/05/07 12:50:15;;;;;;;5.10;1.40;;;14.30;99.90;;;;;;5053438;28;20259;-81
2023/05/07 12:53:05;;;;;;;3.27;1.50;;;14.40;99.90;;;;;;5052504;28;20223;-79
2023/05/07 12:55:40;;;;;;;2.00;1.47;;;15.10;99.90;;;;;;5053003;28;20226;-81
2023/05/07 12:58:06;;;;;;;4.13;1.37;;;15.50;99.90;;;;;;5053917;28;20194;-81
2023/05/07 13:00:38;;;;;;;2.87;1.60;;;15.10;99.90;;;;;;5054179;28;20205;-80
2023/05/07 13:03:05;;;;;;;3.30;1.90;;;15.20;99.90;;;;;;5053259;28;20285;-80
2023/05/07 13:05:32;;;;;;;2.03;1.40;;;14.80;99.90;;;;;;5052201;28;20647;-80
2023/05/07 13:07:59;;;;;;;2.43;1.57;;;14.40;99.90;;;;;;5035592;28;20639;-82
2023/05/07 13:10:27;;;;;;;2.20;1.50;;;13.80;99.90;;;;;;5054445;28;20525;-84
2023/05/07 13:12:54;;;;;;;1.60;1.30;;;13.40;99.90;;;;;;5052019;28;20195;-82
2023/05/07 13:15:21;;;;;;;2.23;1.50;;;13.50;99.90;;;;;;5062705;28;20183;-88
2023/05/07 13:17:48;;;;;;;1.50;1.23;;;13.30;99.90;;;;;;5055330;28;20739;-92
2023/05/07 13:20:17;;;;;;;2.60;1.40;;;13.20;99.90;;;;;;5037013;28;20625;-90
2023/05/07 13:22:44;;;;;;;2.40;1.67;;;13.30;99.90;;;;;;5055719;28;20670;-89
2023/05/07 13:25:11;;;;;;;2.23;1.50;;;13.30;99.90;;;;;;5037686;28;20597;-84
2023/05/07 13:27:38;;;;;;;2.07;1.40;;;13.20;99.90;;;;;;5054950;28;20187;-90
2023/05/07 13:30:06;;;;;;;1.60;1.43;;;13.40;99.90;;;;;;5056828;28;20569;-85
2023/05/07 13:32:33;;;;;;;3.37;1.60;;;13.60;99.90;;;;;;5056945;28;20198;-89
2023/05/07 13:35:00;;;;;;;2.33;1.60;;;13.80;99.90;;;;;;5037429;28;20214;-89
2023/05/07 13:37:27;;;;;;;4.67;1.57;;;13.90;99.90;;;;;;5055546;28;20257;-87
2023/05/07 13:39:54;;;;;;;3.10;1.60;;;13.80;99.90;;;;;;5039100;28;20292;-83
2023/05/07 13:42:21;;;;;;;2.33;1.60;;;13.70;99.90;;;;;;5037699;28;20233;-86
2023/05/07 13:44:48;;;;;;;2.97;1.40;;;13.30;99.90;;;;;;5056122;28;20193;-87
2023/05/07 13:47:16;;;;;;;3.67;1.50;;;13.40;99.90;;;;;;5057796;28;20206;-92
2023/05/07 13:49:43;;;;;;;2.60;1.50;;;14.20;99.90;;;;;;5021559;28;20244;-88
2023/05/07 13:52:10;;;;;;;1.40;1.30;;;15.50;99.90;;;;;;5053948;28;20223;-91
2023/05/07 13:54:38;;;;;;;1.50;1.33;;;16.00;99.90;;;;;;5057787;28;20199;-88
2023/05/07 13:57:05;;;;;;;2.00;1.27;;;15.70;99.90;;;;;;5060047;28;20238;-81
2023/05/07 13:59:31;;;;;;;2.27;1.40;;;16.20;99.90;;;;;;5054232;28;20273;-85
2023/05/07 14:01:58;;;;;;;2.13;1.30;;;16.60;99.90;;;;;;5038959;28;20203;-86
2023/05/07 14:04:25;;;;;;;4.00;1.33;;;17.90;99.90;;;;;;5036154;28;20199;-81
2023/05/07 14:06:52;;;;;;;2.93;1.40;;;18.40;97.10;;;;;;5051444;28;20204;-87
2023/05/07 14:09:19;;;;;;;1.80;1.20;;;18.10;94.30;;;;;;5051201;28;20636;-86
2023/05/07 14:11:47;;;;;;;2.03;1.23;;;17.20;95.00;;;;;;5051921;28;20202;-83
2023/05/07 14:14:14;;;;;;;2.63;1.30;;;16.20;98.50;;;;;;5053524;28;20225;-81
2023/05/07 14:16:41;;;;;;;3.13;1.40;;;16.80;97.80;;;;;;5035644;28;20230;-85
2023/05/07 14:19:08;;;;;;;3.20;1.30;;;18.10;96.20;;;;;;5053093;28;20556;-83
2023/05/07 14:21:35;;;;;;;2.10;1.33;;;19.00;92.30;;;;;;5052323;28;20277;-82
2023/05/07 14:24:02;;;;;;;1.80;1.30;;;19.40;91.20;;;;;;5051195;28;20199;-84
2023/05/07 14:26:29;;;;;;;2.27;1.33;;;19.30;89.40;;;;;;5052207;28;20274;-86
2023/05/07 14:28:58;;;;;;;1.40;1.20;;;18.70;88.70;;;;;;5052370;28;20765;-84
2023/05/07 14:31:25;;;;;;;2.37;1.27;;;17.90;90.20;;;;;;5050974;28;20826;-82
2023/05/07 14:33:53;;;;;;;2.73;1.40;;;17.30;91.00;;;;;;5037029;28;20203;-86
2023/05/07 14:36:21;;;;;;;1.67;1.30;;;16.90;91.80;;;;;;5052278;28;20804;-88
2023/05/07 14:38:48;;;;;;;2.57;1.30;;;17.30;92.40;;;;;;5053613;28;20183;-87
2023/05/07 14:41:16;;;;;;;2.40;1.40;;;17.50;90.30;;;;;;5059653;28;20203;-89
2023/05/07 14:43:49;;;;;;;2.67;1.30;;;17.30;89.10;;;;;;5055801;28;20183;-87
2023/05/07 14:46:17;;;;;;;1.40;1.30;;;17.40;89.20;;;;;;5053617;28;20187;-87
2023/05/07 14:48:46;;;;;;;2.30;1.50;;;17.80;87.50;;;;;;5051715;28;20222;-87
2023/05/07 14:51:13;;;;;;;1.87;1.27;;;18.90;85.20;;;;;;5051610;28;20229;-88
2023/05/07 14:53:41;;;;;;;2.00;1.10;;;19.50;82.40;;;;;;5055128;28;20230;-89
2023/05/07 14:56:08;;;;;;;2.07;1.30;;;19.30;81.30;;;;;;5039718;28;20227;-90
2023/05/07 14:58:36;;;;;;;1.93;1.20;;;19.10;81.70;;;;;;5054190;28;20211;-84
2023/05/07 15:01:03;;;;;;;3.10;1.30;;;18.60;84.50;;;;;;5051941;28;20195;-89
2023/05/07 15:03:30;;;;;;;1.50;1.10;;;17.80;85.00;;;;;;5057755;28;20293;-86
2023/05/07 15:05:57;;;;;;;2.50;1.30;;;17.30;86.30;;;;;;5053777;28;20210;-87
2023/05/07 15:08:24;;;;;;;2.43;1.30;;;16.50;90.30;;;;;;5053347;28;20297;-86
2023/05/07 15:10:51;;;;;;;3.90;1.40;;;16.10;91.10;;;;;;5051164;28;20535;-89
2023/05/07 15:13:18;;;;;;;2.27;1.50;;;16.00;91.80;;;;;;5055709;28;20644;-91
2023/05/07 15:15:45;;;;;;;2.03;1.53;;;16.90;91.50;;;;;;5034267;28;20203;-80
2023/05/07 15:18:14;;;;;;;2.00;1.30;;;18.00;89.40;;;;;;5049874;28;20703;-78
2023/05/07 15:20:41;;;;;;;2.27;1.20;;;18.70;85.70;;;;;;5050334;28;20183;-79
2023/05/07 15:23:13;;;;;;;2.40;1.20;;;19.60;80.60;;;;;;5052267;28;20278;-79
2023/05/07 15:25:41;;;;;;;2.47;1.30;;;19.70;77.10;;;;;;5051347;28;20183;-78
2023/05/07 15:28:08;;;;;;;1.40;1.20;;;20.10;74.70;;;;;;5051208;28;20230;-79
2023/05/07 15:30:35;;;;;;;3.77;1.50;;;20.40;73.30;;;;;;5051161;28;20272;-77
2023/05/07 15:33:03;;;;;;;3.77;1.40;;;21.00;71.20;;;;;;5049426;28;20578;-77
2023/05/07 15:35:30;;;;;;;2.00;1.40;;;21.40;69.50;;;;;;5049424;28;20294;-77
2023/05/07 15:37:57;;;;;;;3.43;1.50;;;20.90;69.60;;;;;;5050974;28;20225;-79
2023/05/07 15:40:24;;;;;;;2.67;1.40;;;21.20;70.00;;;;;;5049780;28;20194;-79
2023/05/07 15:42:55;;;;;;;5.03;1.80;;;21.20;68.70;;;;;;5051664;28;20199;-77
2023/05/07 15:45:23;;;;;;;2.55;1.52;;;21.00;69.30;;;;;;5054447;28;20277;-79
2023/05/07 15:47:50;;;;;;;2.63;1.50;;;20.50;68.20;;;;;;5053503;28;20230;-78
2023/05/07 15:50:18;;;;;;;3.10;1.60;;;20.20;68.30;;;;;;5054712;28;20190;-79
2023/05/07 15:52:46;;;;;;;5.47;1.50;;;20.60;67.60;;;;;;5054524;28;20622;-78
2023/05/07 15:55:13;;;;;;;3.72;1.60;;;20.50;67.80;;;;;;5053053;28;20586;-79
2023/05/07 15:57:41;;;;;;;2.93;1.33;;;20.90;66.80;;;;;;5054317;28;20288;-79
2023/05/07 16:00:10;;;;;;;3.93;1.57;;;21.10;67.00;;;;;;5053258;28;20203;-79
2023/05/07 16:02:37;;;;;;;4.17;1.47;;;20.50;65.50;;;;;;5053413;28;20206;-80
2023/05/07 16:05:07;;;;;;;2.53;1.50;;;20.00;66.30;;;;;;5054930;28;20644;-77
2023/05/07 16:07:35;;;;;;;4.67;1.70;;;19.70;67.90;;;;;;5054012;28;20202;-78
2023/05/07 16:10:03;;;;;;;2.10;1.47;;;19.60;68.20;;;;;;5053177;28;20244;-79
2023/05/07 16:12:31;;;;;;;1.63;1.50;;;19.40;69.60;;;;;;5036133;28;20285;-79
2023/05/07 16:14:58;;;;;;;2.37;1.50;;;19.50;69.30;;;;;;5052781;28;20198;-80
2023/05/07 16:17:25;;;;;;;2.33;1.50;;;19.70;68.60;;;;;;5036370;28;20222;-80
2023/05/07 16:19:52;;;;;;;2.27;1.50;;;19.40;68.70;;;;;;5052743;28;20248;-80
2023/05/07 16:22:19;;;;;;;4.13;1.70;;;19.30;70.10;;;;;;5053233;28;20285;-78
2023/05/07 16:24:46;;;;;;;1.93;1.47;;;19.20;70.10;;;;;;5052384;28;20225;-78
2023/05/07 16:27:13;;;;;;;2.13;1.70;;;18.90;70.60;;;;;;5054173;28;20187;-80
2023/05/07 16:29:40;;;;;;;3.00;1.70;;;18.60;70.90;;;;;;5036318;28;20276;-78
2023/05/07 16:32:07;;;;;;;3.40;1.77;;;18.60;72.10;;;;;;5054302;28;20198;-79
2023/05/07 16:34:34;;;;;;;2.40;1.37;;;17.80;72.10;;;;;;5053881;28;20656;-79
2023/05/07 16:37:02;;;;;;;2.27;1.73;;;17.20;75.00;;;;;;5052425;28;20211;-78
2023/05/07 16:39:30;;;;;;;5.33;1.80;;;16.40;77.20;;;;;;5052909;28;20305;-79
2023/05/07 16:41:57;;;;;;;2.13;1.83;;;16.00;80.80;;;;;;5052227;28;20257;-79
2023/05/07 16:44:24;;;;;;;2.47;1.70;;;15.60;82.50;;;;;;5052286;28;20195;-78
2023/05/07 16:46:52;;;;;;;3.27;1.70;;;14.90;85.50;;;;;;5052200;28;20183;-79
2023/05/07 16:49:18;;;;;;;4.17;2.60;;;14.70;88.80;;;;;;5052241;28;20206;-79
2023/05/07 16:51:45;;;;;;;3.63;1.67;;;14.50;90.60;;;;;;5052352;28;20723;-79
2023/05/07 16:54:12;;;;;;;3.03;1.73;;;14.30;92.00;;;;;;5053116;28;20222;-77
2023/05/07 16:56:41;;;;;;;2.77;1.73;;;13.80;92.50;;;;;;5052010;28;20304;-78
2023/05/07 16:59:08;;;;;;;4.00;1.83;;;13.60;93.00;;;;;;5051773;28;20206;-77
2023/05/07 17:01:35;;;;;;;3.30;1.70;;;13.40;94.10;;;;;;5053521;28;20211;-74
2023/05/07 17:04:02;;;;;;;2.80;1.83;;;13.20;95.70;;;;;;5052883;28;20254;-76
2023/05/07 17:06:30;;;;;;;3.37;1.77;;;12.80;96.80;;;;;;5051796;28;20194;-74
2023/05/07 17:09:46;;;;;;;2.10;1.70;;;13.00;98.80;;;;;;5051849;28;20602;-74
2023/05/07 17:12:14;;;;;;;3.03;1.60;;;12.70;99.90;;;;;;4990679;28;20729;-75
2023/05/07 17:14:41;;;;;;;2.60;1.90;;;12.50;99.90;;;;;;4958847;28;20212;-72
2023/05/07 17:17:18;;;;;;;2.50;1.73;;;12.50;99.90;;;;;;4974706;28;20232;-76
2023/05/07 17:19:48;;;;;;;5.40;2.10;;;12.20;99.90;;;;;;4991205;28;20224;-74
2023/05/07 17:22:14;;;;;;;2.80;1.90;;;12.10;99.90;;;;;;4991596;28;20209;-79
2023/05/07 17:24:41;;;;;;;3.83;2.00;;;11.90;99.90;;;;;;4975176;28;20247;-82
2023/05/07 17:27:08;;;;;;;3.13;2.00;;;11.70;99.90;;;;;;4992007;28;20313;-83
2023/05/07 17:29:35;;;;;;;2.33;1.80;;;11.60;99.90;;;;;;4993498;28;20349;-84
2023/05/07 17:32:02;;;;;;;2.87;1.93;;;11.60;99.90;;;;;;4974967;28;20209;-82
2023/05/07 17:34:31;;;;;;;3.50;1.87;;;11.50;99.90;;;;;;4975234;28;20211;-82
2023/05/07 17:36:58;;;;;;;2.53;1.90;;;11.40;99.90;;;;;;4974497;28;20227;-80
2023/05/07 17:39:25;;;;;;;2.83;2.10;;;11.30;99.90;;;;;;4991563;28;20201;-83
2023/05/07 17:41:52;;;;;;;3.10;2.00;;;11.30;99.90;;;;;;4977356;28;20193;-81
2023/05/07 17:44:19;;;;;;;3.20;2.20;;;11.40;99.90;;;;;;4992718;28;20224;-84
2023/05/07 17:46:46;;;;;;;4.70;2.03;;;11.20;99.90;;;;;;4991372;28;20706;-82
2023/05/07 17:49:14;;;;;;;5.77;2.33;;;10.90;99.90;;;;;;5010996;28;20209;-80
2023/05/07 17:51:42;;;;;;;3.33;2.00;;;11.00;99.90;;;;;;5051099;28;20195;-81
2023/05/07 17:54:25;;;;;;;6.13;2.30;;;10.80;99.90;;;;;;5047812;28;20248;-78
2023/05/07 17:57:02;;;;;;;3.30;2.10;;;10.60;99.90;;;;;;5050333;28;20788;-79
2023/05/07 17:59:29;;;;;;;4.80;2.27;;;10.60;99.90;;;;;;5029936;28;20209;-81
2023/05/07 18:01:56;;;;;;;4.33;2.23;;;10.60;99.90;;;;;;5031727;28;20203;-81
2023/05/07 18:04:25;;;;;;;4.50;2.53;;;10.50;99.90;;;;;;5050321;28;20302;-79
2023/05/07 18:06:52;;;;;;;3.67;2.33;;;10.30;99.90;;;;;;5050258;28;20202;-83
2023/05/07 18:09:20;;;;;;;4.03;2.40;;;10.20;99.90;;;;;;5034817;28;20302;-85
2023/05/07 18:11:47;;;;;;;5.77;2.60;;;10.10;99.90;;;;;;5051177;28;20195;-81
2023/05/07 18:14:13;;;;;;;3.63;2.30;;;10.00;99.90;;;;;;5052412;28;20191;-81
2023/05/07 18:16:40;;;;;;;4.60;2.57;;;9.90;99.90;;;;;;5034766;28;20211;-84
2023/05/07 18:19:08;;;;;;;3.50;2.30;;;10.10;99.90;;;;;;5052223;28;20269;-81
2023/05/07 18:21:34;;;;;;;3.77;2.80;;;9.80;99.90;;;;;;5034260;28;20199;-84
2023/05/07 18:24:01;;;;;;;4.27;2.80;;;9.80;99.90;;;;;;5035546;28;20198;-83
2023/05/07 18:26:28;;;;;;;6.50;2.93;;;9.70;99.90;;;;;;5051031;28;20285;-82
2023/05/07 18:28:55;;;;;;;5.70;2.70;;;9.70;99.90;;;;;;5052600;28;20209;-86
2023/05/07 18:31:22;;;;;;;3.83;2.63;;;9.70;99.90;;;;;;5047900;28;20210;-80
2023/05/07 18:33:53;;;;;;;4.07;2.63;;;9.40;99.90;;;;;;5044466;28;20325;-81
2023/05/07 18:36:23;;;;;;;9.33;2.73;;;9.40;99.90;;;;;;5046895;28;20209;-80
2023/05/07 18:38:51;;;;;;;5.33;2.50;;;9.30;99.90;;;;;;5042934;28;20664;-81
2023/05/07 18:41:18;;;;;;;3.67;2.50;;;9.30;99.90;;;;;;5044265;28;20192;-82
2023/05/07 18:43:45;;;;;;;5.83;2.60;;;9.30;99.90;;;;;;5032094;28;20188;-81
2023/05/07 18:46:11;;;;;;;6.33;2.73;;;9.30;99.90;;;;;;5040354;28;20229;-86
2023/05/07 18:48:39;;;;;;;4.77;2.90;;;9.10;99.90;;;;;;5044245;28;20199;-75
2023/05/07 18:51:11;;;;;;;5.93;2.80;;;9.10;99.90;;;;;;5037894;28;20658;-87
2023/05/07 18:53:40;;;;;;;5.20;3.00;;;9.00;99.90;;;;;;5030653;28;20208;-76
2023/05/07 18:56:07;;;;;;;4.23;2.87;;;8.90;99.90;;;;;;5037038;28;20231;-77
2023/05/07 18:58:34;;;;;;;4.43;2.90;;;8.90;99.90;;;;;;5014464;28;20219;-77
2023/05/07 19:01:06;;;;;;;5.37;3.10;;;9.10;99.90;;;;;;5031262;28;20195;-77
2023/05/07 19:03:34;;;;;;;6.10;3.03;;;8.90;99.90;;;;;;5031669;28;20588;-80
2023/05/07 19:06:07;;;;;;;4.80;3.20;;;8.90;99.90;;;;;;5044921;28;20194;-82
2023/05/07 19:08:34;;;;;;;8.60;3.40;;;8.70;99.90;;;;;;5050279;28;20206;-78
2023/05/07 19:11:02;;;;;;;4.27;2.83;;;8.70;99.90;;;;;;5050267;28;20195;-79
2023/05/07 19:13:29;;;;;;;5.40;3.60;;;8.70;99.90;;;;;;5049486;28;20199;-78
2023/05/07 19:15:56;;;;;;;5.33;3.10;;;8.60;99.90;;;;;;5050677;28;20205;-77
2023/05/07 19:18:23;;;;;;;4.27;2.77;;;8.50;99.90;;;;;;5052670;28;20218;-79
2023/05/07 19:20:50;;;;;;;6.00;3.47;;;8.60;99.90;;;;;;5037746;28;20257;-77
2023/05/07 19:23:21;;;;;;;4.57;2.70;;;8.80;99.90;;;;;;5054286;28;20210;-78
2023/05/07 19:25:47;;;;;;;7.37;3.17;;;8.50;99.90;;;;;;5037413;28;20209;-78
2023/05/07 19:28:15;;;;;;;6.73;3.00;;;8.40;99.90;;;;;;5055342;28;20191;-80
2023/05/07 19:30:43;;;;;;;4.53;3.10;;;8.40;99.90;;;;;;5052721;28;20237;-82
2023/05/07 19:33:11;;;;;;;7.93;3.10;;;8.30;99.90;;;;;;5037908;28;20197;-78
2023/05/07 19:35:38;;;;;;;5.27;3.00;;;8.30;99.90;;;;;;5054926;28;20194;-76
2023/05/07 19:38:05;;;;;;;4.10;2.97;;;8.20;99.90;;;;;;5054706;28;20264;-76
2023/05/07 19:40:31;;;;;;;6.13;3.13;;;8.30;99.90;;;;;;5048414;28;20225;-79
2023/05/07 19:42:59;;;;;;;5.90;3.10;;;8.40;99.90;;;;;;5033652;28;20691;-76
2023/05/07 19:45:26;;;;;;;5.73;3.07;;;8.20;99.90;;;;;;5034910;28;20196;-78
2023/05/07 19:47:53;;;;;;;6.30;3.00;;;8.10;99.90;;;;;;5033481;28;20196;-77
2023/05/07 19:50:21;;;;;;;4.60;2.90;;;8.10;99.90;;;;;;5033933;28;20980;-76
2023/05/07 19:52:48;;;;;;;5.73;3.00;;;8.10;99.90;;;;;;5033167;28;20222;-78
2023/05/07 19:55:15;;;;;;;16.27;3.97;;;8.00;99.90;;;;;;5033420;28;20257;-79
2023/05/07 19:57:48;;;;;;;6.20;3.10;;;8.00;99.90;;;;;;5039146;28;20199;-79
2023/05/07 20:00:16;;;;;;;7.20;3.13;;;8.00;99.90;;;;;;5036207;28;20213;-79
2023/05/07 20:02:42;;;;;;;5.33;3.27;;;7.90;99.90;;;;;;5030846;28;20200;-76
2023/05/07 20:05:10;;;;;;;4.53;2.87;;;7.90;99.90;;;;;;5039723;28;20278;-78
2023/05/07 20:07:39;;;;;;;10.03;3.30;;;7.90;99.90;;;;;;5017952;28;20231;-82
2023/05/07 20:10:07;;;;;;;5.27;3.47;;;7.90;99.90;;;;;;5016894;28;20298;-80
2023/05/07 20:12:34;;;;;;;5.87;3.40;;;7.80;99.90;;;;;;5017370;28;20207;-83
2023/05/07 20:15:01;;;;;;;5.60;3.20;;;7.80;99.90;;;;;;5046427;28;20190;-85
2023/05/07 20:17:28;;;;;;;5.90;3.13;;;7.70;99.90;;;;;;5074902;28;20201;-86
2023/05/07 20:19:55;;;;;;;5.03;3.17;;;7.70;99.90;;;;;;5079362;28;20210;-87
2023/05/07 20:22:22;;;;;;;5.50;3.40;;;7.70;99.90;;;;;;5078829;28;20680;-81
2023/05/07 20:24:50;;;;;;;6.40;3.57;;;7.60;99.90;;;;;;5076364;28;20198;-85
2023/05/07 20:27:20;;;;;;;6.47;3.23;;;7.80;99.90;;;;;;5056609;28;20194;-85
2023/05/07 20:29:47;;;;;;;5.60;3.30;;;7.50;99.90;;;;;;5060780;28;20194;-82
2023/05/07 20:32:14;;;;;;;4.80;3.20;;;7.60;99.90;;;;;;5054030;28;20269;-82
2023/05/07 20:34:43;;;;;;;5.97;3.50;;;7.40;99.90;;;;;;5066712;28;20267;-89
2023/05/07 20:37:13;;;;;;;5.50;3.43;;;7.30;99.90;;;;;;5038423;28;20217;-81
2023/05/07 20:39:41;;;;;;;5.37;3.53;;;7.30;99.90;;;;;;5030133;28;20595;-88
2023/05/07 20:42:08;;;;;;;8.10;3.53;;;7.20;99.90;;;;;;5023913;28;20250;-77
2023/05/07 20:44:35;;;;;;;8.33;3.17;;;7.20;99.90;;;;;;5033776;28;20738;-78
2023/05/07 20:47:02;;;;;;;7.40;3.70;;;7.20;99.90;;;;;;5032801;28;20768;-78
2023/05/07 20:49:29;;;;;;;6.20;3.90;;;7.20;99.90;;;;;;5052767;28;20269;-77
2023/05/07 20:51:56;;;;;;;8.17;4.00;;;7.40;99.90;;;;;;5052823;28;20199;-75
2023/05/07 20:54:26;;;;;;;7.50;3.60;;;7.10;99.90;;;;;;5035699;28;20218;-75
2023/05/07 20:56:54;;;;;;;5.90;3.90;;;7.00;99.90;;;;;;5052196;28;20632;-78
2023/05/07 20:59:23;;;;;;;6.37;3.77;;;7.00;99.90;;;;;;5053098;28;20237;-76
2023/05/07 21:01:52;;;;;;;5.90;3.90;;;6.90;99.90;;;;;;5052606;28;20241;-83
2023/05/07 21:04:21;;;;;;;5.93;3.90;;;6.90;99.90;;;;;;5037621;28;20228;-79
2023/05/07 21:06:49;;;;;;;7.07;3.90;;;6.80;99.90;;;;;;5062080;28;20198;-74
2023/05/07 21:09:16;;;;;;;7.93;4.10;;;6.80;99.90;;;;;;5062754;28;20199;-77
2023/05/07 21:11:43;;;;;;;6.90;4.27;;;6.70;99.90;;;;;;5055772;28;20187;-73
2023/05/07 21:14:10;;;;;;;8.07;4.70;;;6.70;99.90;;;;;;5054160;28;20198;-79
2023/05/07 21:16:37;;;;;;;7.90;4.53;;;6.60;99.90;;;;;;5058341;28;20253;-75
2023/05/07 21:19:04;;;;;;;8.47;4.70;;;6.60;99.90;;;;;;5063954;28;20229;-79
2023/05/07 21:21:31;;;;;;;8.27;4.60;;;6.60;99.90;;;;;;5058520;28;20248;-76
2023/05/07 21:24:00;;;;;;;6.93;4.60;;;6.60;99.90;;;;;;5051707;28;20198;-75
2023/05/07 21:26:31;;;;;;;8.90;5.20;;;6.50;99.90;;;;;;5066751;28;20285;-78
2023/05/07 21:28:59;;;;;;;9.50;5.40;;;6.50;99.90;;;;;;5031616;28;20191;-78
2023/05/07 21:31:26;;;;;;;12.80;5.73;;;6.70;99.90;;;;;;5051333;28;20217;-80
2023/05/07 21:33:53;;;;;;;10.90;5.80;;;6.50;99.90;;;;;;5046842;28;20596;-78
2023/05/07 21:36:20;;;;;;;8.30;5.83;;;6.40;99.90;;;;;;5073173;28;20201;-78
2023/05/07 21:38:47;;;;;;;11.20;6.33;;;6.30;99.90;;;;;;5072898;28;20209;-77
2023/05/07 21:41:14;;;;;;;10.80;6.37;;;6.30;99.90;;;;;;5070936;28;20205;-75
2023/05/07 21:43:41;;;;;;;11.67;6.90;;;6.20;99.90;;;;;;5071684;28;20198;-74
2023/05/07 21:46:08;;;;;;;12.67;7.20;;;6.20;99.90;;;;;;5071184;28;20566;-76
2023/05/07 21:48:35;;;;;;;12.23;7.33;;;6.10;99.90;;;;;;5061709;28;20234;-78
2023/05/07 21:51:06;;;;;;;15.87;7.87;;;6.20;99.90;;;;;;5031762;28;20548;-75
2023/05/07 21:53:33;;;;;;;12.90;7.70;;;6.10;99.90;;;;;;5033489;28;20217;-75
2023/05/07 21:56:01;;;;;;;12.57;8.17;;;6.10;99.90;;;;;;5032973;28;20223;-75
2023/05/07 21:58:29;;;;;;;12.57;7.70;;;6.00;99.90;;;;;;5033143;28;20282;-76
2023/05/07 22:00:57;;;;;;;13.27;7.73;;;6.00;99.90;;;;;;5047098;28;20243;-75
2023/05/07 22:03:24;;;;;;;11.77;7.67;;;6.00;99.90;;;;;;5051091;28;20213;-74
2023/05/07 22:05:51;;;;;;;14.43;7.80;;;5.90;99.90;;;;;;5051834;28;20233;-76
2023/05/07 22:08:18;;;;;;;14.03;8.80;;;5.80;99.90;;;;;;5050523;28;20199;-74
2023/05/07 22:10:45;;;;;;;14.53;8.60;;;5.80;99.90;;;;;;5052138;28;20252;-75
2023/05/07 22:13:12;;;;;;;15.57;8.90;;;5.60;99.90;;;;;;5034631;28;20187;-74
2023/05/07 22:15:40;;;;;;;13.60;8.40;;;5.70;99.90;;;;;;5050482;28;20651;-75
2023/05/07 22:18:22;;;;;;;15.50;8.73;;;5.60;99.90;;;;;;5050491;28;20219;-74
2023/05/07 22:20:50;;;;;;;15.40;9.43;;;5.80;99.90;;;;;;5050680;28;20221;-76
2023/05/07 22:23:17;;;;;;;14.17;8.67;;;5.60;99.90;;;;;;5050769;28;20210;-75
2023/05/07 22:25:44;;;;;;;14.90;8.90;;;5.60;99.90;;;;;;5050817;28;20199;-76
2023/05/07 22:28:11;;;;;;;19.07;9.37;;;5.60;99.90;;;;;;5051041;28;20186;-75
2023/05/07 22:30:38;;;;;;;16.90;9.13;;;5.60;99.90;;;;;;5050718;28;20265;-75
2023/05/07 22:33:05;;;;;;;16.77;10.03;;;5.60;99.90;;;;;;5051593;28;20194;-76
2023/05/07 22:35:33;;;;;;;17.53;9.47;;;5.60;99.90;;;;;;5051765;28;20230;-75
2023/05/07 22:38:00;;;;;;;16.57;10.03;;;5.40;99.90;;;;;;5049945;28;20662;-77
2023/05/07 22:40:26;;;;;;;20.17;10.83;;;5.40;99.90;;;;;;5050851;28;20203;-77
2023/05/07 22:42:53;;;;;;;19.33;10.97;;;5.40;99.90;;;;;;5050240;28;20291;-77
2023/05/07 22:45:21;;;;;;;17.33;10.73;;;5.60;99.90;;;;;;5051044;28;20210;-77
2023/05/07 22:47:47;;;;;;;18.77;11.10;;;5.30;99.90;;;;;;5050391;28;20198;-76
2023/05/07 22:50:14;;;;;;;18.27;10.70;;;5.50;99.90;;;;;;5051528;28;20198;-76
2023/05/07 22:52:41;;;;;;;18.60;10.73;;;5.20;99.90;;;;;;5050382;28;20233;-76
2023/05/07 22:55:09;;;;;;;19.93;11.63;;;5.30;99.90;;;;;;5049733;28;20207;-74
2023/05/07 22:57:35;;;;;;;20.50;11.53;;;5.20;99.90;;;;;;5051554;28;20198;-76
2023/05/07 23:00:03;;;;;;;19.63;11.73;;;5.20;99.90;;;;;;5049910;28;20650;-74
2023/05/07 23:02:32;;;;;;;19.60;11.73;;;5.20;99.90;;;;;;5049922;28;20270;-74
2023/05/07 23:05:00;;;;;;;18.20;11.07;;;5.20;99.90;;;;;;5049644;28;20198;-75
2023/05/07 23:07:27;;;;;;;18.33;10.77;;;5.20;99.90;;;;;;5050995;28;20656;-76
2023/05/07 23:09:54;;;;;;;20.77;10.97;;;5.10;99.90;;;;;;5050328;28;20198;-75
2023/05/07 23:12:21;;;;;;;21.20;11.67;;;5.10;99.90;;;;;;5051481;28;20201;-76
2023/05/07 23:14:48;;;;;;;17.57;10.73;;;5.10;99.90;;;;;;5049865;28;20202;-76
2023/05/07 23:17:15;;;;;;;20.37;10.97;;;5.00;99.90;;;;;;5050863;28;20710;-76
2023/05/07 23:19:42;;;;;;;19.53;11.10;;;5.00;99.90;;;;;;5049802;28;20215;-76
2023/05/07 23:22:09;;;;;;;21.17;11.60;;;5.00;99.90;;;;;;5051396;28;20195;-75
2023/05/07 23:24:36;;;;;;;18.00;11.37;;;4.90;99.90;;;;;;5033290;28;20195;-74
2023/05/07 23:27:04;;;;;;;17.13;10.73;;;4.90;99.90;;;;;;5049827;28;20640;-75
2023/05/07 23:29:31;;;;;;;18.20;10.80;;;4.80;99.90;;;;;;5049860;28;20203;-75
2023/05/07 23:31:58;;;;;;;19.37;11.43;;;4.90;99.90;;;;;;5049684;28;20201;-75
2023/05/07 23:34:26;;;;;;;19.70;11.40;;;4.90;99.90;;;;;;5050610;28;20194;-75
2023/05/07 23:36:53;;;;;;;18.53;11.20;;;4.90;99.90;;;;;;5049672;28;20210;-75
2023/05/07 23:39:20;;;;;;;19.47;11.33;;;4.80;99.90;;;;;;5049761;28;20617;-76
2023/05/07 23:41:46;;;;;;;21.10;11.50;;;4.80;99.90;;;;;;5049683;28;20201;-75
2023/05/07 23:44:15;;;;;;;21.77;11.07;;;4.80;99.90;;;;;;5049525;28;20277;-75
2023/05/07 23:46:43;;;;;;;20.30;11.07;;;4.70;99.90;;;;;;5050112;28;20208;-76
2023/05/07 23:49:10;;;;;;;18.20;10.93;;;4.70;99.90;;;;;;5049308;28;20215;-75
2023/05/07 23:51:37;;;;;;;19.53;11.70;;;4.70;99.90;;;;;;5038491;28;20290;-76